sensor_id;sensor_type;location;lat;lon;timestamp;pressure;altitude;pressure_sealevel;temperature;humidity
21153;BME280;10734;44.792;20.482;2023-05-21T05:02:06;99859.00;;;17.37;nan
21153;BME280;10734;44.792;20.482;2023-05-21T05:04:33;99858.75;;;17.40;nan
21153;BME280;10734;44.792;20.482;2023-05-21T05:07:00;99865.03;;;17.40;nan
21153;BME280;10734;44.792;20.482;2023-05-21T05:09:27;99851.28;;;17.42;nan
21153;BME280;10734;44.792;20.482;2023-05-21T05:11:55;99858.31;;;17.44;nan
21153;BME280;10734;44.792;20.482;2023-05-21T05:14:22;99859.59;;;17.40;nan
21153;BME280;10734;44.792;20.482;2023-05-21T05:16:48;99858.47;;;17.43;nan
21153;BME280;10734;44.792;20.482;2023-05-21T05:19:15;99852.03;;;17.44;nan
21153;BME280;10734;44.792;20.482;2023-05-21T05:21:42;99848.19;;;17.46;nan
21153;BME280;10734;44.792;20.482;2023-05-21T05:24:09;99846.63;;;17.54;nan
21153;BME280;10734;44.792;20.482;2023-05-21T05:26:36;99844.94;;;17.62;nan
21153;BME280;10734;44.792;20.482;2023-05-21T05:29:03;99848.28;;;17.76;nan
21153;BME280;10734;44.792;20.482;2023-05-21T05:31:30;99849.81;;;17.89;nan
21153;BME280;10734;44.792;20.482;2023-05-21T05:33:56;99854.16;;;18.02;nan
21153;BME280;10734;44.792;20.482;2023-05-21T05:36:23;99856.75;;;18.13;nan
21153;BME280;10734;44.792;20.482;2023-05-21T05:38:51;99849.03;;;18.18;nan
21153;BME280;10734;44.792;20.482;2023-05-21T05:41:18;99850.75;;;18.19;nan
21153;BME280;10734;44.792;20.482;2023-05-21T05:43:44;99857.38;;;18.26;nan
21153;BME280;10734;44.792;20.482;2023-05-21T05:46:12;99857.09;;;18.29;nan
21153;BME280;10734;44.792;20.482;2023-05-21T05:48:39;99855.13;;;18.41;nan
21153;BME280;10734;44.792;20.482;2023-05-21T05:51:07;99855.09;;;18.51;nan
21153;BME280;10734;44.792;20.482;2023-05-21T05:53:33;99851.09;;;18.64;nan
21153;BME280;10734;44.792;20.482;2023-05-21T05:56:00;99854.88;;;18.73;nan
21153;BME280;10734;44.792;20.482;2023-05-21T05:58:28;99853.56;;;18.77;nan
21153;BME280;10734;44.792;20.482;2023-05-21T06:00:55;99857.31;;;18.86;nan
21153;BME280;10734;44.792;20.482;2023-05-21T06:03:21;99852.72;;;18.96;nan
21153;BME280;10734;44.792;20.482;2023-05-21T06:05:48;99849.09;;;19.05;nan
21153;BME280;10734;44.792;20.482;2023-05-21T06:08:15;99847.19;;;19.25;nan
21153;BME280;10734;44.792;20.482;2023-05-21T06:10:42;99853.34;;;19.47;nan
21153;BME280;10734;44.792;20.482;2023-05-21T06:13:09;99855.88;;;19.58;nan
21153;BME280;10734;44.792;20.482;2023-05-21T06:15:36;99850.41;;;19.77;nan
21153;BME280;10734;44.792;20.482;2023-05-21T06:18:03;99858.78;;;19.94;nan
21153;BME280;10734;44.792;20.482;2023-05-21T06:20:30;99857.66;;;20.14;nan
21153;BME280;10734;44.792;20.482;2023-05-21T06:22:56;99854.53;;;20.37;nan
21153;BME280;10734;44.792;20.482;2023-05-21T06:25:23;99853.44;;;20.47;nan
21153;BME280;10734;44.792;20.482;2023-05-21T06:27:51;99852.16;;;20.69;nan
21153;BME280;10734;44.792;20.482;2023-05-21T06:30:18;99848.66;;;20.77;nan
21153;BME280;10734;44.792;20.482;2023-05-21T06:32:44;99852.06;;;20.97;nan
21153;BME280;10734;44.792;20.482;2023-05-21T06:35:11;99851.25;;;21.22;nan
21153;BME280;10734;44.792;20.482;2023-05-21T06:37:38;99851.59;;;21.45;nan
21153;BME280;10734;44.792;20.482;2023-05-21T06:40:06;99844.78;;;21.76;nan
21153;BME280;10734;44.792;20.482;2023-05-21T06:42:33;99849.97;;;21.87;nan
21153;BME280;10734;44.792;20.482;2023-05-21T06:45:00;99844.34;;;21.96;nan
21153;BME280;10734;44.792;20.482;2023-05-21T06:47:28;99848.69;;;22.07;nan
21153;BME280;10734;44.792;20.482;2023-05-21T06:49:55;99839.88;;;22.30;nan
21153;BME280;10734;44.792;20.482;2023-05-21T06:52:22;99832.22;;;22.50;nan
21153;BME280;10734;44.792;20.482;2023-05-21T06:54:49;99835.16;;;22.81;nan
21153;BME280;10734;44.792;20.482;2023-05-21T06:57:16;99832.63;;;23.12;nan
21153;BME280;10734;44.792;20.482;2023-05-21T06:59:44;99825.63;;;22.93;nan
21153;BME280;10734;44.792;20.482;2023-05-21T07:02:11;99828.31;;;22.77;nan
21153;BME280;10734;44.792;20.482;2023-05-21T07:04:38;99828.09;;;22.54;nan
21153;BME280;10734;44.792;20.482;2023-05-21T07:07:05;99828.63;;;22.57;nan
21153;BME280;10734;44.792;20.482;2023-05-21T07:09:32;99836.53;;;22.60;nan
21153;BME280;10734;44.792;20.482;2023-05-21T07:11:59;99831.69;;;22.54;nan
21153;BME280;10734;44.792;20.482;2023-05-21T07:14:26;99838.03;;;22.38;nan
21153;BME280;10734;44.792;20.482;2023-05-21T07:16:56;99835.09;;;22.32;nan
21153;BME280;10734;44.792;20.482;2023-05-21T07:19:23;99822.03;;;22.26;nan
21153;BME280;10734;44.792;20.482;2023-05-21T07:21:50;99828.25;;;22.36;nan
21153;BME280;10734;44.792;20.482;2023-05-21T07:24:17;99829.97;;;22.37;nan
21153;BME280;10734;44.792;20.482;2023-05-21T07:26:44;99835.28;;;22.38;nan
21153;BME280;10734;44.792;20.482;2023-05-21T07:29:11;99833.97;;;22.59;nan
21153;BME280;10734;44.792;20.482;2023-05-21T07:31:38;99838.41;;;22.68;nan
21153;BME280;10734;44.792;20.482;2023-05-21T07:34:05;99833.09;;;22.75;nan
21153;BME280;10734;44.792;20.482;2023-05-21T07:36:33;99835.69;;;22.84;nan
21153;BME280;10734;44.792;20.482;2023-05-21T07:38:59;99834.81;;;22.76;nan
21153;BME280;10734;44.792;20.482;2023-05-21T07:41:27;99834.38;;;22.97;nan
21153;BME280;10734;44.792;20.482;2023-05-21T07:43:53;99832.31;;;23.07;nan
21153;BME280;10734;44.792;20.482;2023-05-21T07:46:20;99831.06;;;23.09;nan
21153;BME280;10734;44.792;20.482;2023-05-21T07:48:47;99833.28;;;23.38;nan
21153;BME280;10734;44.792;20.482;2023-05-21T07:51:15;99833.59;;;23.52;nan
21153;BME280;10734;44.792;20.482;2023-05-21T07:53:43;99829.31;;;23.49;nan
21153;BME280;10734;44.792;20.482;2023-05-21T07:56:10;99827.06;;;23.61;nan
21153;BME280;10734;44.792;20.482;2023-05-21T07:58:37;99825.66;;;23.73;nan
21153;BME280;10734;44.792;20.482;2023-05-21T08:01:04;99830.50;;;23.71;nan
21153;BME280;10734;44.792;20.482;2023-05-21T08:03:31;99825.56;;;24.06;nan
21153;BME280;10734;44.792;20.482;2023-05-21T08:05:59;99824.22;;;24.33;nan
21153;BME280;10734;44.792;20.482;2023-05-21T08:08:26;99831.63;;;24.64;nan
21153;BME280;10734;44.792;20.482;2023-05-21T08:10:54;99825.78;;;24.59;nan
21153;BME280;10734;44.792;20.482;2023-05-21T08:13:21;99826.78;;;24.66;nan
21153;BME280;10734;44.792;20.482;2023-05-21T08:15:48;99829.66;;;24.95;nan
21153;BME280;10734;44.792;20.482;2023-05-21T08:18:18;99824.91;;;25.27;nan
21153;BME280;10734;44.792;20.482;2023-05-21T08:20:44;99814.41;;;25.60;nan
21153;BME280;10734;44.792;20.482;2023-05-21T08:23:11;99828.44;;;25.88;nan
21153;BME280;10734;44.792;20.482;2023-05-21T08:25:39;99826.69;;;26.17;nan
21153;BME280;10734;44.792;20.482;2023-05-21T08:28:06;99823.34;;;26.36;nan
21153;BME280;10734;44.792;20.482;2023-05-21T08:30:33;99822.06;;;26.54;nan
21153;BME280;10734;44.792;20.482;2023-05-21T08:33:00;99827.28;;;26.85;nan
21153;BME280;10734;44.792;20.482;2023-05-21T08:35:27;99838.13;;;26.86;nan
21153;BME280;10734;44.792;20.482;2023-05-21T08:37:56;99818.06;;;26.41;nan
21153;BME280;10734;44.792;20.482;2023-05-21T08:40:22;99822.59;;;26.64;nan
21153;BME280;10734;44.792;20.482;2023-05-21T08:42:50;99830.91;;;26.85;nan
21153;BME280;10734;44.792;20.482;2023-05-21T08:45:21;99822.09;;;27.18;nan
21153;BME280;10734;44.792;20.482;2023-05-21T08:47:55;99826.69;;;26.89;nan
21153;BME280;10734;44.792;20.482;2023-05-21T08:50:26;99829.63;;;27.09;nan
21153;BME280;10734;44.792;20.482;2023-05-21T08:52:54;99820.28;;;27.32;nan
21153;BME280;10734;44.792;20.482;2023-05-21T08:55:21;99824.25;;;27.51;nan
21153;BME280;10734;44.792;20.482;2023-05-21T08:57:49;99830.50;;;26.88;nan
21153;BME280;10734;44.792;20.482;2023-05-21T09:00:17;99828.97;;;26.64;nan
21153;BME280;10734;44.792;20.482;2023-05-21T09:02:46;99828.22;;;26.71;nan
21153;BME280;10734;44.792;20.482;2023-05-21T09:05:14;99831.41;;;26.96;nan
21153;BME280;10734;44.792;20.482;2023-05-21T09:07:46;99830.25;;;27.05;nan
21153;BME280;10734;44.792;20.482;2023-05-21T09:10:22;99831.47;;;27.45;nan
21153;BME280;10734;44.792;20.482;2023-05-21T09:13:11;99832.31;;;27.18;nan
21153;BME280;10734;44.792;20.482;2023-05-21T09:15:39;99824.72;;;27.26;nan
21153;BME280;10734;44.792;20.482;2023-05-21T09:18:07;99822.59;;;27.28;nan
21153;BME280;10734;44.792;20.482;2023-05-21T09:20:34;99820.31;;;27.67;nan
21153;BME280;10734;44.792;20.482;2023-05-21T09:23:04;99822.41;;;27.08;nan
21153;BME280;10734;44.792;20.482;2023-05-21T09:25:32;99815.34;;;27.27;nan
21153;BME280;10734;44.792;20.482;2023-05-21T09:27:59;99811.66;;;27.42;nan
21153;BME280;10734;44.792;20.482;2023-05-21T09:30:26;99807.47;;;27.24;nan
21153;BME280;10734;44.792;20.482;2023-05-21T09:33:00;99811.44;;;27.15;nan
21153;BME280;10734;44.792;20.482;2023-05-21T09:35:28;99831.03;;;27.20;nan
21153;BME280;10734;44.792;20.482;2023-05-21T09:37:54;99803.09;;;27.36;nan
21153;BME280;10734;44.792;20.482;2023-05-21T09:40:23;99806.94;;;27.70;nan
21153;BME280;10734;44.792;20.482;2023-05-21T09:42:52;99809.78;;;27.77;nan
21153;BME280;10734;44.792;20.482;2023-05-21T09:45:21;99809.16;;;27.81;nan
21153;BME280;10734;44.792;20.482;2023-05-21T09:47:50;99808.31;;;27.81;nan
21153;BME280;10734;44.792;20.482;2023-05-21T09:50:21;99809.16;;;27.81;nan
21153;BME280;10734;44.792;20.482;2023-05-21T09:52:50;99806.84;;;27.57;nan
21153;BME280;10734;44.792;20.482;2023-05-21T09:55:21;99796.44;;;27.59;nan
21153;BME280;10734;44.792;20.482;2023-05-21T09:57:49;99804.91;;;27.79;nan
21153;BME280;10734;44.792;20.482;2023-05-21T10:00:28;99801.88;;;28.15;nan
21153;BME280;10734;44.792;20.482;2023-05-21T10:03:00;99803.09;;;28.47;nan
21153;BME280;10734;44.792;20.482;2023-05-21T10:05:28;99804.44;;;28.71;nan
21153;BME280;10734;44.792;20.482;2023-05-21T10:08:02;99808.56;;;29.02;nan
21153;BME280;10734;44.792;20.482;2023-05-21T10:10:31;99813.88;;;29.17;nan
21153;BME280;10734;44.792;20.482;2023-05-21T10:13:05;99810.25;;;29.23;nan
21153;BME280;10734;44.792;20.482;2023-05-21T10:15:37;99823.72;;;29.59;nan
21153;BME280;10734;44.792;20.482;2023-05-21T10:18:05;99809.16;;;29.37;nan
21153;BME280;10734;44.792;20.482;2023-05-21T10:20:35;99806.22;;;29.26;nan
21153;BME280;10734;44.792;20.482;2023-05-21T10:23:03;99791.41;;;29.78;nan
21153;BME280;10734;44.792;20.482;2023-05-21T10:25:31;99795.63;;;30.01;nan
21153;BME280;10734;44.792;20.482;2023-05-21T10:27:58;99804.41;;;29.91;nan
21153;BME280;10734;44.792;20.482;2023-05-21T10:30:26;99797.22;;;29.43;nan
21153;BME280;10734;44.792;20.482;2023-05-21T10:32:54;99796.16;;;29.38;nan
21153;BME280;10734;44.792;20.482;2023-05-21T10:35:23;99787.81;;;29.64;nan
21153;BME280;10734;44.792;20.482;2023-05-21T10:37:51;99795.53;;;29.69;nan
21153;BME280;10734;44.792;20.482;2023-05-21T10:40:19;99785.00;;;29.84;nan
21153;BME280;10734;44.792;20.482;2023-05-21T10:48:22;99792.22;;;29.92;nan
21153;BME280;10734;44.792;20.482;2023-05-21T10:51:14;99793.84;;;30.20;nan
21153;BME280;10734;44.792;20.482;2023-05-21T10:59:30;99784.19;;;29.70;nan
21153;BME280;10734;44.792;20.482;2023-05-21T11:01:54;99787.59;;;29.73;nan
21153;BME280;10734;44.792;20.482;2023-05-21T11:04:26;99778.16;;;29.87;nan
21153;BME280;10734;44.792;20.482;2023-05-21T11:06:53;99780.88;;;30.07;nan
21153;BME280;10734;44.792;20.482;2023-05-21T11:09:20;99776.56;;;30.11;nan
21153;BME280;10734;44.792;20.482;2023-05-21T11:11:51;99770.59;;;30.14;nan
21153;BME280;10734;44.792;20.482;2023-05-21T11:14:39;99775.00;;;30.35;nan
21153;BME280;10734;44.792;20.482;2023-05-21T11:19:47;99768.19;;;30.31;nan
21153;BME280;10734;44.792;20.482;2023-05-21T11:22:25;99773.19;;;30.85;nan
21153;BME280;10734;44.792;20.482;2023-05-21T11:24:53;99765.22;;;30.64;nan
21153;BME280;10734;44.792;20.482;2023-05-21T11:27:40;99767.34;;;30.94;nan
21153;BME280;10734;44.792;20.482;2023-05-21T11:30:15;99754.97;;;31.15;nan
21153;BME280;10734;44.792;20.482;2023-05-21T11:35:37;99759.47;;;30.91;nan
21153;BME280;10734;44.792;20.482;2023-05-21T11:38:08;99760.13;;;30.54;nan
21153;BME280;10734;44.792;20.482;2023-05-21T11:40:35;99748.00;;;30.04;nan
21153;BME280;10734;44.792;20.482;2023-05-21T11:43:02;99747.53;;;30.13;nan
21153;BME280;10734;44.792;20.482;2023-05-21T11:45:31;99731.56;;;30.47;nan
21153;BME280;10734;44.792;20.482;2023-05-21T11:47:59;99735.53;;;30.90;nan
21153;BME280;10734;44.792;20.482;2023-05-21T11:50:28;99741.47;;;30.93;nan
21153;BME280;10734;44.792;20.482;2023-05-21T11:52:56;99737.91;;;30.86;nan
21153;BME280;10734;44.792;20.482;2023-05-21T11:55:26;99740.25;;;30.89;nan
21153;BME280;10734;44.792;20.482;2023-05-21T11:57:53;99728.31;;;30.82;nan
21153;BME280;10734;44.792;20.482;2023-05-21T12:00:21;99719.56;;;30.47;nan
21153;BME280;10734;44.792;20.482;2023-05-21T12:02:51;99718.75;;;30.78;nan
21153;BME280;10734;44.792;20.482;2023-05-21T12:05:19;99721.72;;;30.45;nan
21153;BME280;10734;44.792;20.482;2023-05-21T12:07:48;99731.72;;;30.84;nan
21153;BME280;10734;44.792;20.482;2023-05-21T12:10:21;99725.63;;;30.37;nan
21153;BME280;10734;44.792;20.482;2023-05-21T12:12:50;99723.78;;;30.24;nan
21153;BME280;10734;44.792;20.482;2023-05-21T12:15:23;99722.91;;;30.30;nan
21153;BME280;10734;44.792;20.482;2023-05-21T12:17:50;99720.88;;;30.44;nan
21153;BME280;10734;44.792;20.482;2023-05-21T12:20:18;99713.78;;;30.48;nan
21153;BME280;10734;44.792;20.482;2023-05-21T12:22:47;99721.94;;;30.75;nan
21153;BME280;10734;44.792;20.482;2023-05-21T12:25:17;99719.63;;;30.97;nan
21153;BME280;10734;44.792;20.482;2023-05-21T12:27:46;99730.88;;;30.52;nan
21153;BME280;10734;44.792;20.482;2023-05-21T12:30:14;99713.91;;;30.60;nan
21153;BME280;10734;44.792;20.482;2023-05-21T12:32:42;99706.94;;;30.82;nan
21153;BME280;10734;44.792;20.482;2023-05-21T12:35:23;99713.88;;;31.17;nan
21153;BME280;10734;44.792;20.482;2023-05-21T12:37:51;99711.53;;;30.95;nan
21153;BME280;10734;44.792;20.482;2023-05-21T12:40:18;99723.16;;;30.85;nan
21153;BME280;10734;44.792;20.482;2023-05-21T12:42:46;99707.03;;;30.94;nan
21153;BME280;10734;44.792;20.482;2023-05-21T12:45:13;99702.94;;;30.97;nan
21153;BME280;10734;44.792;20.482;2023-05-21T12:47:40;99706.06;;;31.32;nan
21153;BME280;10734;44.792;20.482;2023-05-21T12:50:08;99701.41;;;31.01;nan
21153;BME280;10734;44.792;20.482;2023-05-21T12:52:39;99689.34;;;30.89;nan
21153;BME280;10734;44.792;20.482;2023-05-21T12:55:07;99685.41;;;30.96;nan
21153;BME280;10734;44.792;20.482;2023-05-21T12:57:36;99690.19;;;30.89;nan
21153;BME280;10734;44.792;20.482;2023-05-21T13:00:07;99688.41;;;30.70;nan
21153;BME280;10734;44.792;20.482;2023-05-21T13:02:42;99680.50;;;30.67;nan
21153;BME280;10734;44.792;20.482;2023-05-21T13:05:15;99688.47;;;30.31;nan
21153;BME280;10734;44.792;20.482;2023-05-21T13:07:45;99691.53;;;30.55;nan
21153;BME280;10734;44.792;20.482;2023-05-21T13:10:14;99683.66;;;31.02;nan
21153;BME280;10734;44.792;20.482;2023-05-21T13:12:42;99684.22;;;31.10;nan
21153;BME280;10734;44.792;20.482;2023-05-21T13:15:10;99681.97;;;30.76;nan
21153;BME280;10734;44.792;20.482;2023-05-21T13:17:37;99677.22;;;30.51;nan
21153;BME280;10734;44.792;20.482;2023-05-21T13:20:08;99670.53;;;31.09;nan
21153;BME280;10734;44.792;20.482;2023-05-21T13:25:09;99667.53;;;31.10;nan
21153;BME280;10734;44.792;20.482;2023-05-21T13:27:38;99664.34;;;31.32;nan
21153;BME280;10734;44.792;20.482;2023-05-21T13:30:06;99662.97;;;31.16;nan
21153;BME280;10734;44.792;20.482;2023-05-21T13:32:33;99662.81;;;31.36;nan
21153;BME280;10734;44.792;20.482;2023-05-21T13:35:01;99653.09;;;31.94;nan
21153;BME280;10734;44.792;20.482;2023-05-21T13:37:28;99652.25;;;31.93;nan
21153;BME280;10734;44.792;20.482;2023-05-21T13:39:54;99659.38;;;31.71;nan
21153;BME280;10734;44.792;20.482;2023-05-21T13:42:22;99650.53;;;31.92;nan
21153;BME280;10734;44.792;20.482;2023-05-21T13:44:49;99650.44;;;31.99;nan
21153;BME280;10734;44.792;20.482;2023-05-21T13:47:16;99650.41;;;31.69;nan
21153;BME280;10734;44.792;20.482;2023-05-21T13:49:43;99644.66;;;31.82;nan
21153;BME280;10734;44.792;20.482;2023-05-21T13:52:10;99644.78;;;31.57;nan
21153;BME280;10734;44.792;20.482;2023-05-21T13:54:38;99648.28;;;32.01;nan
21153;BME280;10734;44.792;20.482;2023-05-21T13:57:05;99647.97;;;30.99;nan
21153;BME280;10734;44.792;20.482;2023-05-21T13:59:32;99655.03;;;31.01;nan
21153;BME280;10734;44.792;20.482;2023-05-21T14:02:00;99649.34;;;31.51;nan
21153;BME280;10734;44.792;20.482;2023-05-21T14:04:27;99643.84;;;31.45;nan
21153;BME280;10734;44.792;20.482;2023-05-21T14:06:54;99645.72;;;30.89;nan
21153;BME280;10734;44.792;20.482;2023-05-21T14:09:21;99639.00;;;31.40;nan
21153;BME280;10734;44.792;20.482;2023-05-21T14:11:49;99633.03;;;31.55;nan
21153;BME280;10734;44.792;20.482;2023-05-21T14:14:16;99631.94;;;31.19;nan
21153;BME280;10734;44.792;20.482;2023-05-21T14:16:48;99631.50;;;30.79;nan
21153;BME280;10734;44.792;20.482;2023-05-21T14:19:16;99636.22;;;30.97;nan
21153;BME280;10734;44.792;20.482;2023-05-21T14:21:43;99633.69;;;31.14;nan
21153;BME280;10734;44.792;20.482;2023-05-21T14:24:11;99635.97;;;31.42;nan
21153;BME280;10734;44.792;20.482;2023-05-21T14:26:41;99642.03;;;31.39;nan
21153;BME280;10734;44.792;20.482;2023-05-21T14:29:08;99637.91;;;31.41;nan
21153;BME280;10734;44.792;20.482;2023-05-21T14:31:37;99650.44;;;31.32;nan
21153;BME280;10734;44.792;20.482;2023-05-21T14:34:04;99652.81;;;30.85;nan
21153;BME280;10734;44.792;20.482;2023-05-21T14:36:34;99652.06;;;30.96;nan
21153;BME280;10734;44.792;20.482;2023-05-21T14:39:02;99646.50;;;31.15;nan
21153;BME280;10734;44.792;20.482;2023-05-21T14:41:29;99651.81;;;31.41;nan
21153;BME280;10734;44.792;20.482;2023-05-21T14:43:56;99647.59;;;31.14;nan
21153;BME280;10734;44.792;20.482;2023-05-21T14:46:23;99654.25;;;30.37;nan
21153;BME280;10734;44.792;20.482;2023-05-21T14:48:52;99660.00;;;30.68;nan
21153;BME280;10734;44.792;20.482;2023-05-21T14:51:20;99656.25;;;31.05;nan
21153;BME280;10734;44.792;20.482;2023-05-21T14:53:47;99653.16;;;30.95;nan
21153;BME280;10734;44.792;20.482;2023-05-21T14:56:18;99649.22;;;31.03;nan
21153;BME280;10734;44.792;20.482;2023-05-21T14:58:47;99662.16;;;30.66;nan
21153;BME280;10734;44.792;20.482;2023-05-21T15:01:15;99655.25;;;30.11;nan
21153;BME280;10734;44.792;20.482;2023-05-21T15:03:41;99656.88;;;29.87;nan
21153;BME280;10734;44.792;20.482;2023-05-21T15:06:10;99654.47;;;29.98;nan
21153;BME280;10734;44.792;20.482;2023-05-21T15:08:38;99652.69;;;30.10;nan
21153;BME280;10734;44.792;20.482;2023-05-21T15:11:06;99650.72;;;30.24;nan
21153;BME280;10734;44.792;20.482;2023-05-21T15:13:36;99653.72;;;30.15;nan
21153;BME280;10734;44.792;20.482;2023-05-21T15:16:03;99655.19;;;30.25;nan
21153;BME280;10734;44.792;20.482;2023-05-21T15:18:31;99651.78;;;30.23;nan
21153;BME280;10734;44.792;20.482;2023-05-21T15:20:58;99647.09;;;30.16;nan
21153;BME280;10734;44.792;20.482;2023-05-21T15:23:25;99638.13;;;30.14;nan
21153;BME280;10734;44.792;20.482;2023-05-21T15:25:53;99639.31;;;30.00;nan
21153;BME280;10734;44.792;20.482;2023-05-21T15:31:38;99641.56;;;30.16;nan
21153;BME280;10734;44.792;20.482;2023-05-21T15:34:05;99637.63;;;30.31;nan
21153;BME280;10734;44.792;20.482;2023-05-21T15:36:31;99642.78;;;30.27;nan
21153;BME280;10734;44.792;20.482;2023-05-21T15:38:59;99646.06;;;29.73;nan
21153;BME280;10734;44.792;20.482;2023-05-21T15:41:28;99643.47;;;29.78;nan
21153;BME280;10734;44.792;20.482;2023-05-21T15:43:57;99644.41;;;30.03;nan
21153;BME280;10734;44.792;20.482;2023-05-21T15:46:23;99641.19;;;30.06;nan
21153;BME280;10734;44.792;20.482;2023-05-21T15:48:51;99638.59;;;30.11;nan
21153;BME280;10734;44.792;20.482;2023-05-21T15:51:18;99643.78;;;29.50;nan
21153;BME280;10734;44.792;20.482;2023-05-21T15:53:45;99631.34;;;29.00;nan
21153;BME280;10734;44.792;20.482;2023-05-21T15:56:12;99642.44;;;28.87;nan
21153;BME280;10734;44.792;20.482;2023-05-21T15:58:39;99652.03;;;28.65;nan
21153;BME280;10734;44.792;20.482;2023-05-21T16:01:06;99655.16;;;28.28;nan
21153;BME280;10734;44.792;20.482;2023-05-21T16:03:33;99652.63;;;28.20;nan
21153;BME280;10734;44.792;20.482;2023-05-21T16:06:00;99668.94;;;27.95;nan
21153;BME280;10734;44.792;20.482;2023-05-21T16:08:28;99680.19;;;27.39;nan
21153;BME280;10734;44.792;20.482;2023-05-21T16:10:55;99687.19;;;26.79;nan
21153;BME280;10734;44.792;20.482;2023-05-21T16:13:22;99689.22;;;26.27;nan
21153;BME280;10734;44.792;20.482;2023-05-21T16:15:50;99693.38;;;25.80;nan
21153;BME280;10734;44.792;20.482;2023-05-21T16:18:16;99703.84;;;25.40;nan
21153;BME280;10734;44.792;20.482;2023-05-21T16:20:44;99702.53;;;25.21;nan
21153;BME280;10734;44.792;20.482;2023-05-21T16:23:11;99705.91;;;25.09;nan
21153;BME280;10734;44.792;20.482;2023-05-21T16:25:38;99706.44;;;24.89;nan
21153;BME280;10734;44.792;20.482;2023-05-21T16:28:05;99712.41;;;24.78;nan
21153;BME280;10734;44.792;20.482;2023-05-21T16:30:32;99709.03;;;24.91;nan
21153;BME280;10734;44.792;20.482;2023-05-21T16:33:00;99708.88;;;25.07;nan
21153;BME280;10734;44.792;20.482;2023-05-21T16:35:27;99713.19;;;25.24;nan
21153;BME280;10734;44.792;20.482;2023-05-21T16:37:56;99732.28;;;25.11;nan
21153;BME280;10734;44.792;20.482;2023-05-21T16:40:24;99722.38;;;25.17;nan
21153;BME280;10734;44.792;20.482;2023-05-21T16:42:52;99733.47;;;25.09;nan
21153;BME280;10734;44.792;20.482;2023-05-21T16:45:19;99733.72;;;24.99;nan
21153;BME280;10734;44.792;20.482;2023-05-21T16:47:47;99725.13;;;24.79;nan
21153;BME280;10734;44.792;20.482;2023-05-21T16:50:14;99728.47;;;24.51;nan
21153;BME280;10734;44.792;20.482;2023-05-21T16:52:42;99729.59;;;24.34;nan
21153;BME280;10734;44.792;20.482;2023-05-21T16:55:09;99736.06;;;24.18;nan
21153;BME280;10734;44.792;20.482;2023-05-21T16:57:36;99727.06;;;24.01;nan
21153;BME280;10734;44.792;20.482;2023-05-21T17:00:04;99732.31;;;23.88;nan
21153;BME280;10734;44.792;20.482;2023-05-21T17:02:30;99727.25;;;23.69;nan
21153;BME280;10734;44.792;20.482;2023-05-21T17:04:58;99727.41;;;23.59;nan
21153;BME280;10734;44.792;20.482;2023-05-21T17:07:25;99729.06;;;23.37;nan
21153;BME280;10734;44.792;20.482;2023-05-21T17:09:54;99736.66;;;23.27;nan
21153;BME280;10734;44.792;20.482;2023-05-21T17:12:22;99735.63;;;23.11;nan
21153;BME280;10734;44.792;20.482;2023-05-21T17:14:49;99737.75;;;22.93;nan
21153;BME280;10734;44.792;20.482;2023-05-21T17:17:17;99734.28;;;22.83;nan
21153;BME280;10734;44.792;20.482;2023-05-21T17:19:44;99735.66;;;22.71;nan
21153;BME280;10734;44.792;20.482;2023-05-21T17:22:13;99736.53;;;22.63;nan
21153;BME280;10734;44.792;20.482;2023-05-21T17:24:40;99744.59;;;22.56;nan
21153;BME280;10734;44.792;20.482;2023-05-21T17:27:11;99747.31;;;22.48;nan
21153;BME280;10734;44.792;20.482;2023-05-21T17:29:37;99751.59;;;22.34;nan
21153;BME280;10734;44.792;20.482;2023-05-21T17:32:04;99745.91;;;22.28;nan
21153;BME280;10734;44.792;20.482;2023-05-21T17:34:33;99741.13;;;22.22;nan
21153;BME280;10734;44.792;20.482;2023-05-21T17:37:00;99744.03;;;22.20;nan
21153;BME280;10734;44.792;20.482;2023-05-21T17:39:28;99742.66;;;22.16;nan
21153;BME280;10734;44.792;20.482;2023-05-21T17:41:55;99746.72;;;22.12;nan
21153;BME280;10734;44.792;20.482;2023-05-21T17:44:22;99747.91;;;22.01;nan
21153;BME280;10734;44.792;20.482;2023-05-21T17:46:50;99738.28;;;21.97;nan
21153;BME280;10734;44.792;20.482;2023-05-21T17:49:17;99741.53;;;21.92;nan
21153;BME280;10734;44.792;20.482;2023-05-21T17:51:44;99739.44;;;21.86;nan
21153;BME280;10734;44.792;20.482;2023-05-21T17:54:12;99741.16;;;21.79;nan
21153;BME280;10734;44.792;20.482;2023-05-21T17:56:38;99737.88;;;21.76;nan
21153;BME280;10734;44.792;20.482;2023-05-21T17:59:07;99737.53;;;21.70;nan
21153;BME280;10734;44.792;20.482;2023-05-21T18:01:37;99734.41;;;21.65;nan
21153;BME280;10734;44.792;20.482;2023-05-21T18:04:05;99741.94;;;21.63;nan
21153;BME280;10734;44.792;20.482;2023-05-21T18:06:38;99735.94;;;21.60;nan
21153;BME280;10734;44.792;20.482;2023-05-21T18:09:06;99739.69;;;21.51;nan
21153;BME280;10734;44.792;20.482;2023-05-21T18:11:37;99732.09;;;21.44;nan
21153;BME280;10734;44.792;20.482;2023-05-21T18:14:05;99740.47;;;21.43;nan
21153;BME280;10734;44.792;20.482;2023-05-21T18:16:32;99735.97;;;21.34;nan
21153;BME280;10734;44.792;20.482;2023-05-21T18:18:59;99739.88;;;21.31;nan
21153;BME280;10734;44.792;20.482;2023-05-21T18:21:35;99738.81;;;21.24;nan
21153;BME280;10734;44.792;20.482;2023-05-21T18:24:03;99735.16;;;21.15;nan
21153;BME280;10734;44.792;20.482;2023-05-21T18:26:31;99735.66;;;21.11;nan
21153;BME280;10734;44.792;20.482;2023-05-21T18:28:58;99733.72;;;21.03;nan
21153;BME280;10734;44.792;20.482;2023-05-21T18:31:26;99739.44;;;20.92;nan
21153;BME280;10734;44.792;20.482;2023-05-21T18:33:53;99730.16;;;20.85;nan
21153;BME280;10734;44.792;20.482;2023-05-21T18:36:21;99739.66;;;20.72;nan
21153;BME280;10734;44.792;20.482;2023-05-21T18:38:48;99735.28;;;20.62;nan